Mohammedia, Morocco
Current Conditions -  °F | °C
As of 2:00 AM on Saturday 25 Oct 2014 (Local Time) from GMMB Reporting Station
Clear Clear  
Wind Chill: 63°   Ceiling: Unl
Heat Index: 63°   Visibility: NA
Dew Point: 63°   Wind: 7mph
Humidity: 100%   Direction: 180°S
Pressure: 30"   Gusts: NA
Location:  33.71°N, 7.39°W
Report Text: GMMB 250100Z AUTO 18006KT //// NCD 17/17 Q1016
Loading
Personal Weather Stations






























Interactive Weather Map
Tropical Storm Tracking
New forecast layout! Learn more

10-Day Weather Forecast

Advertisements
Track Severe Weather on mobile